sensor_id;sensor_type;location;lat;lon;timestamp;temperature;humidity
51825;DHT22;37879;52.986;6.282;2023-08-30T00:00:44;13.30;99.90
51825;DHT22;37879;52.986;6.282;2023-08-30T00:03:11;13.30;99.90
51825;DHT22;37879;52.986;6.282;2023-08-30T00:05:41;13.30;99.90
51825;DHT22;37879;52.986;6.282;2023-08-30T00:08:10;13.30;99.90
51825;DHT22;37879;52.986;6.282;2023-08-30T00:10:36;13.20;99.90
51825;DHT22;37879;52.986;6.282;2023-08-30T00:13:03;13.20;99.90
51825;DHT22;37879;52.986;6.282;2023-08-30T00:15:29;13.20;99.90
51825;DHT22;37879;52.986;6.282;2023-08-30T00:17:55;13.20;99.90
51825;DHT22;37879;52.986;6.282;2023-08-30T00:20:20;13.20;99.90
51825;DHT22;37879;52.986;6.282;2023-08-30T00:22:47;13.10;99.90
51825;DHT22;37879;52.986;6.282;2023-08-30T00:25:14;13.10;99.90
51825;DHT22;37879;52.986;6.282;2023-08-30T00:27:40;13.10;99.90
51825;DHT22;37879;52.986;6.282;2023-08-30T00:30:06;13.10;99.90
51825;DHT22;37879;52.986;6.282;2023-08-30T00:32:33;13.10;99.90
51825;DHT22;37879;52.986;6.282;2023-08-30T00:34:59;13.00;99.90
51825;DHT22;37879;52.986;6.282;2023-08-30T00:37:25;13.00;99.90
51825;DHT22;37879;52.986;6.282;2023-08-30T00:39:50;13.00;99.90
51825;DHT22;37879;52.986;6.282;2023-08-30T00:42:16;12.90;99.90
51825;DHT22;37879;52.986;6.282;2023-08-30T00:44:41;12.90;99.90
51825;DHT22;37879;52.986;6.282;2023-08-30T00:47:07;12.90;99.90
51825;DHT22;37879;52.986;6.282;2023-08-30T00:49:33;12.80;99.90
51825;DHT22;37879;52.986;6.282;2023-08-30T00:52:02;12.80;99.90
51825;DHT22;37879;52.986;6.282;2023-08-30T00:54:29;12.80;99.90
51825;DHT22;37879;52.986;6.282;2023-08-30T00:56:55;12.80;99.90
51825;DHT22;37879;52.986;6.282;2023-08-30T00:59:21;12.80;99.90
51825;DHT22;37879;52.986;6.282;2023-08-30T01:01:47;12.70;99.90
51825;DHT22;37879;52.986;6.282;2023-08-30T01:04:14;12.70;99.90
51825;DHT22;37879;52.986;6.282;2023-08-30T01:06:40;12.70;99.90
51825;DHT22;37879;52.986;6.282;2023-08-30T01:09:06;12.60;99.90
51825;DHT22;37879;52.986;6.282;2023-08-30T01:11:47;12.60;99.90
51825;DHT22;37879;52.986;6.282;2023-08-30T01:14:17;12.50;99.90
51825;DHT22;37879;52.986;6.282;2023-08-30T01:16:44;12.50;99.90
51825;DHT22;37879;52.986;6.282;2023-08-30T01:19:31;12.50;99.90
51825;DHT22;37879;52.986;6.282;2023-08-30T01:22:08;12.60;99.90
51825;DHT22;37879;52.986;6.282;2023-08-30T01:24:49;12.50;99.90
51825;DHT22;37879;52.986;6.282;2023-08-30T01:27:20;12.50;99.90
51825;DHT22;37879;52.986;6.282;2023-08-30T01:29:49;12.50;99.90
51825;DHT22;37879;52.986;6.282;2023-08-30T01:32:15;12.50;99.90
51825;DHT22;37879;52.986;6.282;2023-08-30T01:34:42;12.60;99.90
51825;DHT22;37879;52.986;6.282;2023-08-30T01:37:09;12.60;99.90
51825;DHT22;37879;52.986;6.282;2023-08-30T01:39:38;12.60;99.90
51825;DHT22;37879;52.986;6.282;2023-08-30T01:42:06;12.70;99.90
51825;DHT22;37879;52.986;6.282;2023-08-30T01:44:33;12.70;99.90
51825;DHT22;37879;52.986;6.282;2023-08-30T01:47:00;12.80;99.90
51825;DHT22;37879;52.986;6.282;2023-08-30T01:49:28;12.80;99.90
51825;DHT22;37879;52.986;6.282;2023-08-30T01:51:57;12.80;99.90
51825;DHT22;37879;52.986;6.282;2023-08-30T01:54:24;12.80;99.90
51825;DHT22;37879;52.986;6.282;2023-08-30T01:56:50;12.90;99.90
51825;DHT22;37879;52.986;6.282;2023-08-30T01:59:16;12.90;99.90
51825;DHT22;37879;52.986;6.282;2023-08-30T02:01:42;12.90;99.90
51825;DHT22;37879;52.986;6.282;2023-08-30T02:04:07;13.00;99.90
51825;DHT22;37879;52.986;6.282;2023-08-30T02:09:21;12.90;99.90
51825;DHT22;37879;52.986;6.282;2023-08-30T02:11:51;12.90;99.90
51825;DHT22;37879;52.986;6.282;2023-08-30T02:14:18;13.00;99.90
51825;DHT22;37879;52.986;6.282;2023-08-30T02:16:46;12.90;99.90
51825;DHT22;37879;52.986;6.282;2023-08-30T02:19:13;12.90;99.90
51825;DHT22;37879;52.986;6.282;2023-08-30T02:21:42;12.90;99.90
51825;DHT22;37879;52.986;6.282;2023-08-30T02:24:09;12.80;99.90
51825;DHT22;37879;52.986;6.282;2023-08-30T02:26:34;12.80;99.90
51825;DHT22;37879;52.986;6.282;2023-08-30T02:29:00;12.70;99.90
51825;DHT22;37879;52.986;6.282;2023-08-30T02:31:26;12.70;99.90
51825;DHT22;37879;52.986;6.282;2023-08-30T02:33:51;12.60;99.90
51825;DHT22;37879;52.986;6.282;2023-08-30T02:36:17;12.60;99.90
51825;DHT22;37879;52.986;6.282;2023-08-30T02:38:42;12.60;99.90
51825;DHT22;37879;52.986;6.282;2023-08-30T02:41:08;12.50;99.90
51825;DHT22;37879;52.986;6.282;2023-08-30T02:43:35;12.50;99.90
51825;DHT22;37879;52.986;6.282;2023-08-30T02:46:01;12.50;99.90
51825;DHT22;37879;52.986;6.282;2023-08-30T02:48:29;12.40;99.90
51825;DHT22;37879;52.986;6.282;2023-08-30T02:50:54;12.40;99.90
51825;DHT22;37879;52.986;6.282;2023-08-30T02:53:20;12.40;99.90
51825;DHT22;37879;52.986;6.282;2023-08-30T02:55:47;12.30;99.90
51825;DHT22;37879;52.986;6.282;2023-08-30T02:58:13;12.30;99.90
51825;DHT22;37879;52.986;6.282;2023-08-30T03:00:39;12.20;99.90
51825;DHT22;37879;52.986;6.282;2023-08-30T03:03:04;12.20;99.90
51825;DHT22;37879;52.986;6.282;2023-08-30T03:05:30;12.10;99.90
51825;DHT22;37879;52.986;6.282;2023-08-30T03:07:56;12.10;99.90
51825;DHT22;37879;52.986;6.282;2023-08-30T03:10:22;12.10;99.90
51825;DHT22;37879;52.986;6.282;2023-08-30T03:12:48;12.10;99.90
51825;DHT22;37879;52.986;6.282;2023-08-30T03:15:13;12.00;99.90
51825;DHT22;37879;52.986;6.282;2023-08-30T03:17:39;12.00;99.90
51825;DHT22;37879;52.986;6.282;2023-08-30T03:20:05;12.00;99.90
51825;DHT22;37879;52.986;6.282;2023-08-30T03:22:31;12.00;99.90
51825;DHT22;37879;52.986;6.282;2023-08-30T03:24:57;12.30;99.90
51825;DHT22;37879;52.986;6.282;2023-08-30T03:27:24;12.00;99.90
51825;DHT22;37879;52.986;6.282;2023-08-30T03:29:49;12.00;99.90
51825;DHT22;37879;52.986;6.282;2023-08-30T03:32:17;12.10;99.90
51825;DHT22;37879;52.986;6.282;2023-08-30T03:34:46;12.10;99.90
51825;DHT22;37879;52.986;6.282;2023-08-30T03:37:14;12.20;99.90
51825;DHT22;37879;52.986;6.282;2023-08-30T03:39:39;12.20;99.90
51825;DHT22;37879;52.986;6.282;2023-08-30T03:42:05;12.20;99.90
51825;DHT22;37879;52.986;6.282;2023-08-30T03:44:31;12.30;99.90
51825;DHT22;37879;52.986;6.282;2023-08-30T03:46:57;12.30;99.90
51825;DHT22;37879;52.986;6.282;2023-08-30T03:49:22;12.40;99.90
51825;DHT22;37879;52.986;6.282;2023-08-30T03:51:48;12.40;99.90
51825;DHT22;37879;52.986;6.282;2023-08-30T03:54:14;12.40;99.90
51825;DHT22;37879;52.986;6.282;2023-08-30T03:56:45;12.50;99.90
51825;DHT22;37879;52.986;6.282;2023-08-30T03:59:11;12.50;99.90
51825;DHT22;37879;52.986;6.282;2023-08-30T04:01:37;12.50;99.90
51825;DHT22;37879;52.986;6.282;2023-08-30T04:04:03;12.50;99.90
51825;DHT22;37879;52.986;6.282;2023-08-30T04:06:30;12.60;99.90
51825;DHT22;37879;52.986;6.282;2023-08-30T04:08:56;13.60;99.90
51825;DHT22;37879;52.986;6.282;2023-08-30T04:11:22;12.60;99.90
51825;DHT22;37879;52.986;6.282;2023-08-30T04:13:48;12.60;99.90
51825;DHT22;37879;52.986;6.282;2023-08-30T04:16:14;12.60;99.90
51825;DHT22;37879;52.986;6.282;2023-08-30T04:18:39;12.60;99.90
51825;DHT22;37879;52.986;6.282;2023-08-30T04:21:05;12.80;99.90
51825;DHT22;37879;52.986;6.282;2023-08-30T04:23:33;12.60;99.90
51825;DHT22;37879;52.986;6.282;2023-08-30T04:25:58;12.70;99.90
51825;DHT22;37879;52.986;6.282;2023-08-30T04:28:24;12.70;99.90
51825;DHT22;37879;52.986;6.282;2023-08-30T04:30:53;12.70;99.90
51825;DHT22;37879;52.986;6.282;2023-08-30T04:33:19;12.70;99.90
51825;DHT22;37879;52.986;6.282;2023-08-30T04:35:53;12.70;99.90
51825;DHT22;37879;52.986;6.282;2023-08-30T04:38:20;12.80;99.90
51825;DHT22;37879;52.986;6.282;2023-08-30T04:40:46;12.80;99.90
51825;DHT22;37879;52.986;6.282;2023-08-30T04:43:12;12.80;99.90
51825;DHT22;37879;52.986;6.282;2023-08-30T04:45:37;12.80;99.90
51825;DHT22;37879;52.986;6.282;2023-08-30T04:48:04;12.80;99.90
51825;DHT22;37879;52.986;6.282;2023-08-30T04:50:30;12.80;99.90
51825;DHT22;37879;52.986;6.282;2023-08-30T04:52:56;12.90;99.90
51825;DHT22;37879;52.986;6.282;2023-08-30T04:55:24;12.90;99.90
51825;DHT22;37879;52.986;6.282;2023-08-30T04:57:50;12.90;99.90
51825;DHT22;37879;52.986;6.282;2023-08-30T05:00:17;12.90;99.90
51825;DHT22;37879;52.986;6.282;2023-08-30T05:02:44;12.90;99.90
51825;DHT22;37879;52.986;6.282;2023-08-30T05:05:12;12.90;99.90
51825;DHT22;37879;52.986;6.282;2023-08-30T05:07:38;12.90;99.90
51825;DHT22;37879;52.986;6.282;2023-08-30T05:10:04;12.90;99.90
51825;DHT22;37879;52.986;6.282;2023-08-30T05:12:30;12.90;99.90
51825;DHT22;37879;52.986;6.282;2023-08-30T05:14:56;13.00;99.90
51825;DHT22;37879;52.986;6.282;2023-08-30T05:17:21;13.00;99.90
51825;DHT22;37879;52.986;6.282;2023-08-30T05:19:47;12.90;99.90
51825;DHT22;37879;52.986;6.282;2023-08-30T05:22:13;13.00;99.90
51825;DHT22;37879;52.986;6.282;2023-08-30T05:24:38;13.00;99.90
51825;DHT22;37879;52.986;6.282;2023-08-30T05:27:04;13.00;99.90
51825;DHT22;37879;52.986;6.282;2023-08-30T05:29:30;13.10;99.90
51825;DHT22;37879;52.986;6.282;2023-08-30T05:31:56;13.30;99.90
51825;DHT22;37879;52.986;6.282;2023-08-30T05:34:21;13.10;99.90
51825;DHT22;37879;52.986;6.282;2023-08-30T05:36:49;13.10;99.90
51825;DHT22;37879;52.986;6.282;2023-08-30T05:39:14;13.10;99.90
51825;DHT22;37879;52.986;6.282;2023-08-30T05:41:40;13.10;99.90
51825;DHT22;37879;52.986;6.282;2023-08-30T05:44:06;13.20;99.90
51825;DHT22;37879;52.986;6.282;2023-08-30T05:46:32;13.20;99.90
51825;DHT22;37879;52.986;6.282;2023-08-30T05:48:58;13.20;99.90
51825;DHT22;37879;52.986;6.282;2023-08-30T05:51:26;13.20;99.90
51825;DHT22;37879;52.986;6.282;2023-08-30T05:53:51;13.20;99.90
51825;DHT22;37879;52.986;6.282;2023-08-30T05:56:17;13.20;99.90
51825;DHT22;37879;52.986;6.282;2023-08-30T05:58:43;13.20;99.90
51825;DHT22;37879;52.986;6.282;2023-08-30T06:01:08;13.20;99.90
51825;DHT22;37879;52.986;6.282;2023-08-30T06:03:34;13.20;99.90
51825;DHT22;37879;52.986;6.282;2023-08-30T06:06:00;13.30;99.90
51825;DHT22;37879;52.986;6.282;2023-08-30T06:08:27;13.30;99.90
51825;DHT22;37879;52.986;6.282;2023-08-30T06:10:52;13.40;99.90
51825;DHT22;37879;52.986;6.282;2023-08-30T06:13:18;13.40;99.90
51825;DHT22;37879;52.986;6.282;2023-08-30T06:15:43;13.50;99.90
51825;DHT22;37879;52.986;6.282;2023-08-30T06:18:10;13.50;99.90
51825;DHT22;37879;52.986;6.282;2023-08-30T06:20:40;13.50;99.90
51825;DHT22;37879;52.986;6.282;2023-08-30T06:23:06;13.60;99.90
51825;DHT22;37879;52.986;6.282;2023-08-30T06:25:31;13.50;99.90
51825;DHT22;37879;52.986;6.282;2023-08-30T06:27:58;13.60;99.90
51825;DHT22;37879;52.986;6.282;2023-08-30T06:30:30;13.60;99.90
51825;DHT22;37879;52.986;6.282;2023-08-30T06:32:56;13.60;99.90
51825;DHT22;37879;52.986;6.282;2023-08-30T06:35:22;13.60;99.90
51825;DHT22;37879;52.986;6.282;2023-08-30T06:37:48;13.70;99.90
51825;DHT22;37879;52.986;6.282;2023-08-30T06:40:14;13.60;99.90
51825;DHT22;37879;52.986;6.282;2023-08-30T06:42:40;13.70;99.90
51825;DHT22;37879;52.986;6.282;2023-08-30T06:45:06;13.70;99.90
51825;DHT22;37879;52.986;6.282;2023-08-30T06:47:31;13.70;99.90
51825;DHT22;37879;52.986;6.282;2023-08-30T06:49:58;13.70;99.90
51825;DHT22;37879;52.986;6.282;2023-08-30T06:52:24;13.70;99.90
51825;DHT22;37879;52.986;6.282;2023-08-30T06:54:50;13.70;99.90
51825;DHT22;37879;52.986;6.282;2023-08-30T06:57:16;13.80;99.90
51825;DHT22;37879;52.986;6.282;2023-08-30T06:59:41;13.80;99.90
51825;DHT22;37879;52.986;6.282;2023-08-30T07:02:08;13.90;99.90
51825;DHT22;37879;52.986;6.282;2023-08-30T07:04:33;14.00;99.90
51825;DHT22;37879;52.986;6.282;2023-08-30T07:06:59;14.10;99.90
51825;DHT22;37879;52.986;6.282;2023-08-30T07:09:24;14.20;99.90
51825;DHT22;37879;52.986;6.282;2023-08-30T07:11:58;14.30;99.90
51825;DHT22;37879;52.986;6.282;2023-08-30T07:14:23;14.30;99.90
51825;DHT22;37879;52.986;6.282;2023-08-30T07:16:49;14.40;99.90
51825;DHT22;37879;52.986;6.282;2023-08-30T07:19:16;14.40;99.90
51825;DHT22;37879;52.986;6.282;2023-08-30T07:21:42;14.50;99.90
51825;DHT22;37879;52.986;6.282;2023-08-30T07:24:08;14.60;99.90
51825;DHT22;37879;52.986;6.282;2023-08-30T07:26:34;14.70;99.90
51825;DHT22;37879;52.986;6.282;2023-08-30T07:29:00;14.90;99.90
51825;DHT22;37879;52.986;6.282;2023-08-30T07:31:26;14.90;99.90
51825;DHT22;37879;52.986;6.282;2023-08-30T07:33:52;15.00;99.90
51825;DHT22;37879;52.986;6.282;2023-08-30T07:36:17;15.20;99.90
51825;DHT22;37879;52.986;6.282;2023-08-30T07:38:43;15.30;99.90
51825;DHT22;37879;52.986;6.282;2023-08-30T07:41:09;15.40;99.90
51825;DHT22;37879;52.986;6.282;2023-08-30T07:43:35;15.50;99.90
51825;DHT22;37879;52.986;6.282;2023-08-30T07:46:00;15.60;99.90
51825;DHT22;37879;52.986;6.282;2023-08-30T07:48:26;15.70;99.90
51825;DHT22;37879;52.986;6.282;2023-08-30T07:50:52;15.70;99.90
51825;DHT22;37879;52.986;6.282;2023-08-30T07:53:17;15.70;99.90
51825;DHT22;37879;52.986;6.282;2023-08-30T07:55:48;15.70;99.90
51825;DHT22;37879;52.986;6.282;2023-08-30T07:58:14;15.80;99.90
51825;DHT22;37879;52.986;6.282;2023-08-30T08:00:39;15.80;99.90
51825;DHT22;37879;52.986;6.282;2023-08-30T08:03:05;15.90;99.90
51825;DHT22;37879;52.986;6.282;2023-08-30T08:05:31;15.90;99.90
51825;DHT22;37879;52.986;6.282;2023-08-30T08:08:00;15.90;99.90
51825;DHT22;37879;52.986;6.282;2023-08-30T08:10:26;15.90;99.90
51825;DHT22;37879;52.986;6.282;2023-08-30T08:12:52;15.90;99.90
51825;DHT22;37879;52.986;6.282;2023-08-30T08:15:18;15.90;99.90
51825;DHT22;37879;52.986;6.282;2023-08-30T08:17:43;15.80;99.90
51825;DHT22;37879;52.986;6.282;2023-08-30T08:20:09;15.80;99.90
51825;DHT22;37879;52.986;6.282;2023-08-30T08:22:35;15.90;99.90
51825;DHT22;37879;52.986;6.282;2023-08-30T08:25:01;15.90;99.90
51825;DHT22;37879;52.986;6.282;2023-08-30T08:27:27;15.90;99.90
51825;DHT22;37879;52.986;6.282;2023-08-30T08:29:52;16.00;99.90
51825;DHT22;37879;52.986;6.282;2023-08-30T08:32:18;16.00;99.90
51825;DHT22;37879;52.986;6.282;2023-08-30T08:34:44;16.10;99.90
51825;DHT22;37879;52.986;6.282;2023-08-30T08:37:09;16.00;99.90
51825;DHT22;37879;52.986;6.282;2023-08-30T08:39:35;16.00;99.90
51825;DHT22;37879;52.986;6.282;2023-08-30T08:42:02;15.90;99.90
51825;DHT22;37879;52.986;6.282;2023-08-30T08:44:32;15.90;99.90
51825;DHT22;37879;52.986;6.282;2023-08-30T08:46:59;15.80;99.90
51825;DHT22;37879;52.986;6.282;2023-08-30T08:49:25;15.80;99.90
51825;DHT22;37879;52.986;6.282;2023-08-30T08:51:54;15.70;99.90
51825;DHT22;37879;52.986;6.282;2023-08-30T08:54:20;15.70;99.90
51825;DHT22;37879;52.986;6.282;2023-08-30T08:56:46;15.70;99.90
51825;DHT22;37879;52.986;6.282;2023-08-30T08:59:12;15.70;99.90
51825;DHT22;37879;52.986;6.282;2023-08-30T09:01:39;15.70;99.90
51825;DHT22;37879;52.986;6.282;2023-08-30T09:04:09;15.70;99.90
51825;DHT22;37879;52.986;6.282;2023-08-30T09:06:35;15.70;99.90
51825;DHT22;37879;52.986;6.282;2023-08-30T09:09:04;15.70;99.90
51825;DHT22;37879;52.986;6.282;2023-08-30T09:11:31;15.60;99.90
51825;DHT22;37879;52.986;6.282;2023-08-30T09:13:57;15.70;99.90
51825;DHT22;37879;52.986;6.282;2023-08-30T09:16:22;15.70;99.90
51825;DHT22;37879;52.986;6.282;2023-08-30T09:19:02;15.60;99.90
51825;DHT22;37879;52.986;6.282;2023-08-30T09:21:29;15.60;99.90
51825;DHT22;37879;52.986;6.282;2023-08-30T09:24:03;15.70;99.90
51825;DHT22;37879;52.986;6.282;2023-08-30T09:26:31;15.70;99.90
51825;DHT22;37879;52.986;6.282;2023-08-30T09:29:05;15.80;99.90
51825;DHT22;37879;52.986;6.282;2023-08-30T09:31:35;15.80;99.90
51825;DHT22;37879;52.986;6.282;2023-08-30T09:34:03;15.80;99.90
51825;DHT22;37879;52.986;6.282;2023-08-30T09:36:41;15.90;99.90
51825;DHT22;37879;52.986;6.282;2023-08-30T09:39:11;15.90;99.90
51825;DHT22;37879;52.986;6.282;2023-08-30T09:41:40;15.90;99.90
51825;DHT22;37879;52.986;6.282;2023-08-30T09:46:47;15.90;99.90
51825;DHT22;37879;52.986;6.282;2023-08-30T09:49:14;15.90;99.90
51825;DHT22;37879;52.986;6.282;2023-08-30T09:51:41;15.90;99.90
51825;DHT22;37879;52.986;6.282;2023-08-30T09:54:25;15.90;99.90
51825;DHT22;37879;52.986;6.282;2023-08-30T09:56:54;15.90;99.90
51825;DHT22;37879;52.986;6.282;2023-08-30T09:59:22;15.90;99.90
51825;DHT22;37879;52.986;6.282;2023-08-30T10:01:48;16.00;99.90
51825;DHT22;37879;52.986;6.282;2023-08-30T10:04:15;16.00;99.90
51825;DHT22;37879;52.986;6.282;2023-08-30T10:06:41;16.20;99.90
51825;DHT22;37879;52.986;6.282;2023-08-30T10:09:08;16.20;99.90
51825;DHT22;37879;52.986;6.282;2023-08-30T10:11:35;16.30;99.90
51825;DHT22;37879;52.986;6.282;2023-08-30T10:14:03;16.30;99.90
51825;DHT22;37879;52.986;6.282;2023-08-30T10:16:52;16.40;99.90
51825;DHT22;37879;52.986;6.282;2023-08-30T10:19:25;16.40;99.90
51825;DHT22;37879;52.986;6.282;2023-08-30T10:22:01;16.60;99.90
51825;DHT22;37879;52.986;6.282;2023-08-30T10:24:46;16.70;99.90
51825;DHT22;37879;52.986;6.282;2023-08-30T10:27:14;16.80;99.90
51825;DHT22;37879;52.986;6.282;2023-08-30T10:29:41;17.00;99.90
51825;DHT22;37879;52.986;6.282;2023-08-30T10:32:07;17.10;99.90
51825;DHT22;37879;52.986;6.282;2023-08-30T10:34:34;17.10;99.90
51825;DHT22;37879;52.986;6.282;2023-08-30T10:37:02;17.20;99.90
51825;DHT22;37879;52.986;6.282;2023-08-30T10:39:35;17.30;99.90
51825;DHT22;37879;52.986;6.282;2023-08-30T10:42:10;17.30;99.90
51825;DHT22;37879;52.986;6.282;2023-08-30T10:44:56;17.30;99.90
51825;DHT22;37879;52.986;6.282;2023-08-30T10:47:24;17.20;99.90
51825;DHT22;37879;52.986;6.282;2023-08-30T10:50:02;17.30;99.90
51825;DHT22;37879;52.986;6.282;2023-08-30T10:52:30;17.30;99.90
51825;DHT22;37879;52.986;6.282;2023-08-30T10:55:14;17.20;99.90
51825;DHT22;37879;52.986;6.282;2023-08-30T10:57:45;17.10;99.90
51825;DHT22;37879;52.986;6.282;2023-08-30T11:02:44;17.10;99.90
51825;DHT22;37879;52.986;6.282;2023-08-30T11:05:12;17.00;99.90
51825;DHT22;37879;52.986;6.282;2023-08-30T11:07:38;16.90;99.90
51825;DHT22;37879;52.986;6.282;2023-08-30T11:10:07;16.90;99.90
51825;DHT22;37879;52.986;6.282;2023-08-30T11:12:34;16.80;99.90
51825;DHT22;37879;52.986;6.282;2023-08-30T11:15:01;16.90;99.90
51825;DHT22;37879;52.986;6.282;2023-08-30T11:17:28;16.90;99.90
51825;DHT22;37879;52.986;6.282;2023-08-30T11:20:14;17.10;99.90
51825;DHT22;37879;52.986;6.282;2023-08-30T11:22:43;17.00;99.90
51825;DHT22;37879;52.986;6.282;2023-08-30T11:25:11;17.00;99.90
51825;DHT22;37879;52.986;6.282;2023-08-30T11:27:38;16.90;99.90
51825;DHT22;37879;52.986;6.282;2023-08-30T11:30:04;16.90;99.90
51825;DHT22;37879;52.986;6.282;2023-08-30T11:32:41;16.80;99.90
51825;DHT22;37879;52.986;6.282;2023-08-30T11:35:10;16.70;99.90
51825;DHT22;37879;52.986;6.282;2023-08-30T11:37:35;16.60;99.90
51825;DHT22;37879;52.986;6.282;2023-08-30T11:40:02;16.80;99.90
51825;DHT22;37879;52.986;6.282;2023-08-30T11:42:30;16.40;99.90
51825;DHT22;37879;52.986;6.282;2023-08-30T11:44:58;16.40;99.90
51825;DHT22;37879;52.986;6.282;2023-08-30T11:47:24;16.30;99.90
51825;DHT22;37879;52.986;6.282;2023-08-30T11:49:52;16.20;99.90
51825;DHT22;37879;52.986;6.282;2023-08-30T11:52:19;16.20;99.90
51825;DHT22;37879;52.986;6.282;2023-08-30T11:54:47;16.20;99.90
51825;DHT22;37879;52.986;6.282;2023-08-30T11:57:13;16.20;99.90
51825;DHT22;37879;52.986;6.282;2023-08-30T11:59:39;16.10;99.90
51825;DHT22;37879;52.986;6.282;2023-08-30T12:02:06;16.00;99.90
51825;DHT22;37879;52.986;6.282;2023-08-30T12:04:32;16.00;99.90
51825;DHT22;37879;52.986;6.282;2023-08-30T12:06:58;15.90;99.90
51825;DHT22;37879;52.986;6.282;2023-08-30T12:09:34;15.90;99.90
51825;DHT22;37879;52.986;6.282;2023-08-30T12:12:10;15.80;99.90
51825;DHT22;37879;52.986;6.282;2023-08-30T12:14:38;15.70;99.90
51825;DHT22;37879;52.986;6.282;2023-08-30T12:17:04;15.80;99.90
51825;DHT22;37879;52.986;6.282;2023-08-30T12:19:31;15.70;99.90
51825;DHT22;37879;52.986;6.282;2023-08-30T12:22:04;15.70;99.90
51825;DHT22;37879;52.986;6.282;2023-08-30T12:24:50;15.70;99.90
51825;DHT22;37879;52.986;6.282;2023-08-30T12:27:16;15.60;99.90
51825;DHT22;37879;52.986;6.282;2023-08-30T12:29:42;15.70;99.90
51825;DHT22;37879;52.986;6.282;2023-08-30T12:32:08;15.60;99.90
51825;DHT22;37879;52.986;6.282;2023-08-30T12:34:34;15.60;99.90
51825;DHT22;37879;52.986;6.282;2023-08-30T12:37:00;15.50;99.90
51825;DHT22;37879;52.986;6.282;2023-08-30T12:39:27;15.50;99.90
51825;DHT22;37879;52.986;6.282;2023-08-30T12:41:53;15.50;99.90
51825;DHT22;37879;52.986;6.282;2023-08-30T12:44:18;15.50;99.90
51825;DHT22;37879;52.986;6.282;2023-08-30T12:46:44;15.40;99.90
51825;DHT22;37879;52.986;6.282;2023-08-30T12:49:09;15.40;99.90
51825;DHT22;37879;52.986;6.282;2023-08-30T12:51:35;15.30;99.90
51825;DHT22;37879;52.986;6.282;2023-08-30T12:54:01;15.20;99.90
51825;DHT22;37879;52.986;6.282;2023-08-30T12:56:26;15.10;99.90
51825;DHT22;37879;52.986;6.282;2023-08-30T12:58:52;15.20;99.90
51825;DHT22;37879;52.986;6.282;2023-08-30T13:01:18;15.20;99.90
51825;DHT22;37879;52.986;6.282;2023-08-30T13:03:44;15.20;99.90
51825;DHT22;37879;52.986;6.282;2023-08-30T13:06:09;15.10;99.90
51825;DHT22;37879;52.986;6.282;2023-08-30T13:08:35;15.10;99.90
51825;DHT22;37879;52.986;6.282;2023-08-30T13:11:01;15.10;99.90
51825;DHT22;37879;52.986;6.282;2023-08-30T13:13:26;15.10;99.90
51825;DHT22;37879;52.986;6.282;2023-08-30T13:15:52;15.00;99.90
51825;DHT22;37879;52.986;6.282;2023-08-30T13:18:18;15.10;99.90
51825;DHT22;37879;52.986;6.282;2023-08-30T13:20:43;15.10;99.90
51825;DHT22;37879;52.986;6.282;2023-08-30T13:23:10;15.10;99.90
51825;DHT22;37879;52.986;6.282;2023-08-30T13:25:41;15.10;99.90
51825;DHT22;37879;52.986;6.282;2023-08-30T13:28:07;15.20;99.90
51825;DHT22;37879;52.986;6.282;2023-08-30T13:30:33;15.20;99.90
51825;DHT22;37879;52.986;6.282;2023-08-30T13:32:59;15.30;99.90
51825;DHT22;37879;52.986;6.282;2023-08-30T13:35:25;15.30;99.90
51825;DHT22;37879;52.986;6.282;2023-08-30T13:37:50;15.40;99.90
51825;DHT22;37879;52.986;6.282;2023-08-30T13:40:16;15.50;99.90
51825;DHT22;37879;52.986;6.282;2023-08-30T13:42:42;15.70;99.90
51825;DHT22;37879;52.986;6.282;2023-08-30T13:45:09;15.80;99.90
51825;DHT22;37879;52.986;6.282;2023-08-30T13:47:38;15.80;99.90
51825;DHT22;37879;52.986;6.282;2023-08-30T13:50:04;15.90;99.90
51825;DHT22;37879;52.986;6.282;2023-08-30T13:52:30;16.00;99.90
51825;DHT22;37879;52.986;6.282;2023-08-30T13:54:56;16.10;99.90
51825;DHT22;37879;52.986;6.282;2023-08-30T13:57:22;16.20;99.90
51825;DHT22;37879;52.986;6.282;2023-08-30T13:59:48;16.30;99.90
51825;DHT22;37879;52.986;6.282;2023-08-30T14:02:13;16.30;99.90
51825;DHT22;37879;52.986;6.282;2023-08-30T14:04:39;16.40;99.90
51825;DHT22;37879;52.986;6.282;2023-08-30T14:07:05;16.40;99.90
51825;DHT22;37879;52.986;6.282;2023-08-30T14:09:30;16.40;99.90
51825;DHT22;37879;52.986;6.282;2023-08-30T14:11:56;16.60;99.90
51825;DHT22;37879;52.986;6.282;2023-08-30T14:14:22;16.40;99.90
51825;DHT22;37879;52.986;6.282;2023-08-30T14:16:48;16.30;99.90
51825;DHT22;37879;52.986;6.282;2023-08-30T14:19:15;16.20;99.90
51825;DHT22;37879;52.986;6.282;2023-08-30T14:21:41;16.20;99.90
51825;DHT22;37879;52.986;6.282;2023-08-30T14:24:07;16.10;99.90
51825;DHT22;37879;52.986;6.282;2023-08-30T14:26:33;16.10;99.90
51825;DHT22;37879;52.986;6.282;2023-08-30T14:28:58;16.00;99.90
51825;DHT22;37879;52.986;6.282;2023-08-30T14:31:24;15.90;99.90
51825;DHT22;37879;52.986;6.282;2023-08-30T14:33:54;15.70;99.90
51825;DHT22;37879;52.986;6.282;2023-08-30T14:36:21;15.70;99.90
51825;DHT22;37879;52.986;6.282;2023-08-30T14:38:47;15.60;99.90
51825;DHT22;37879;52.986;6.282;2023-08-30T14:41:12;15.80;99.90
51825;DHT22;37879;52.986;6.282;2023-08-30T14:43:39;16.00;99.90
51825;DHT22;37879;52.986;6.282;2023-08-30T14:46:05;16.20;99.90
51825;DHT22;37879;52.986;6.282;2023-08-30T14:48:32;16.40;99.90
51825;DHT22;37879;52.986;6.282;2023-08-30T14:50:58;16.60;99.90
51825;DHT22;37879;52.986;6.282;2023-08-30T14:53:24;16.80;99.90
51825;DHT22;37879;52.986;6.282;2023-08-30T14:55:50;16.70;99.90
51825;DHT22;37879;52.986;6.282;2023-08-30T14:58:15;16.70;99.90
51825;DHT22;37879;52.986;6.282;2023-08-30T15:00:41;16.80;99.90
51825;DHT22;37879;52.986;6.282;2023-08-30T15:03:07;16.90;99.90
51825;DHT22;37879;52.986;6.282;2023-08-30T15:05:33;17.00;99.90
51825;DHT22;37879;52.986;6.282;2023-08-30T15:07:59;17.20;99.90
51825;DHT22;37879;52.986;6.282;2023-08-30T15:10:25;17.20;99.90
51825;DHT22;37879;52.986;6.282;2023-08-30T15:12:50;17.30;99.90
51825;DHT22;37879;52.986;6.282;2023-08-30T15:15:16;17.20;99.90
51825;DHT22;37879;52.986;6.282;2023-08-30T15:17:43;17.20;99.90
51825;DHT22;37879;52.986;6.282;2023-08-30T15:20:09;17.20;99.90
51825;DHT22;37879;52.986;6.282;2023-08-30T15:22:35;17.00;99.90
51825;DHT22;37879;52.986;6.282;2023-08-30T15:25:01;16.80;99.90
51825;DHT22;37879;52.986;6.282;2023-08-30T15:27:35;16.60;99.90
51825;DHT22;37879;52.986;6.282;2023-08-30T15:30:01;16.50;99.90
51825;DHT22;37879;52.986;6.282;2023-08-30T15:32:27;16.40;99.90
51825;DHT22;37879;52.986;6.282;2023-08-30T15:34:54;16.40;99.90
51825;DHT22;37879;52.986;6.282;2023-08-30T15:37:20;16.30;99.90